acme.com alexa rank chart, acme.com alexa rank daily changes

acme.com alexa rank chart, acme.com alexa rank daily changes

acme.com
Actual rank:
168 343

RANK HISTORY

Date Rank Diff
2018/04/26 168 343 +36 409
2018/04/25 131 934 -68 585
2018/04/24 200 519 +116 782
2018/04/23 83 737 -35 542
2018/04/22 119 279 +45 526
2018/04/21 73 753 -20 707
2018/04/20 94 460 -155 138
2018/04/19 249 598 +170 054
2018/04/18 79 544 -72 040
2018/04/17 151 584 +30 788
2018/04/16 120 796 -56 449
2018/04/15 177 245 +54 873
2018/04/14 122 372 -43 550
2018/04/13 165 922 -58 832
2018/04/12 224 754 +3 556
2018/04/11 221 198 +47 660
2018/04/10 173 538 -37 687
2018/04/09 211 225 +48 893
2018/04/08 162 332 +11 123
2018/04/07 151 209 -9 147
2018/04/06 160 356 -1 827
2018/04/05 162 183 +83 099
2018/04/04 79 084 -118 238
2018/04/03 197 322 +104 379
2018/04/02 92 943 -20 909
2018/04/01 113 852 -39 915
2018/03/31 153 767 +12 896
2018/03/30 140 871 -102 434
2018/03/29 243 305 +59 757
2018/03/28 183 548 -69 746
2018/03/27 253 294 +76 795
2018/03/26 176 499 +24 762
2018/03/25 151 737 +10 854
2018/03/24 140 883 +35 710
2018/03/23 105 173 -93 879
2018/03/22 199 052 -32 069
2018/03/21 231 121 +39 803
2018/03/20 191 318 +45 670
2018/03/19 145 648 -105 525
2018/03/18 251 173 +121 747
2018/03/17 129 426 -20 099
2018/03/16 149 525 -6 674
2018/03/15 156 199 +37 870
2018/03/14 118 329 +61 129
2018/03/13 57 200 -46 014
2018/03/12 103 214 -45 437
2018/03/11 148 651 -36 218
2018/03/10 184 869 +62 897
2018/03/09 121 972 +4 047
2018/03/08 117 925 +35 144
2018/03/07 82 781 -29 443
2018/03/06 112 224 -58 205
2018/03/05 170 429 -11 425
2018/03/04 181 854 +83 907
2018/03/03 97 947 -56 960
2018/03/02 154 907 -5 259
2018/03/01 160 166 +59 982
2018/02/28 100 184 -29 732
2018/02/27 129 916 -18 490
2018/02/26 148 406 -23 606
2018/02/25 172 012

WIDGET FOR YOUR SITE

DOMAINS WITH THE NEAREST RANK

Domain Rank
moh.go.tz 168 338
factmyth.com 168 339
nontonsub.com 168 340
brunoespiao.com.br 168 341
innocurrent.com 168 342
acme.com 168 343
deployhq.com 168 344
hzpp.hr 168 345
pohod-vosemvrat.livejournal.com 168 346
yuanta.co.th 168 347
bakeru.edu 168 348

DOMAINS WITH THE NEAREST RANK BY TLD .com

Domain Rank
testmozusercontent.com 168 334
power-eng.com 168 337
factmyth.com 168 339
nontonsub.com 168 340
innocurrent.com 168 342
acme.com 168 343
deployhq.com 168 344
designcontest.com 168 349
outboundengine.com 168 350
fobito.com 168 355
orlygift.com 168 356